createdAt,value
2016-11-16T00:00:34.280Z,5.57
2016-11-16T00:01:44.547Z,5.59
2016-11-16T00:02:54.820Z,5.57
2016-11-16T00:04:04.491Z,5.64
2016-11-16T00:05:14.762Z,5.62
2016-11-16T00:06:24.733Z,5.59
2016-11-16T00:07:34.710Z,5.69
2016-11-16T00:08:45.331Z,5.66
2016-11-16T00:09:55.599Z,5.62
2016-11-16T00:11:05.576Z,5.72
2016-11-16T00:12:15.863Z,5.72
2016-11-16T00:13:25.836Z,5.77
2016-11-16T00:14:35.820Z,5.78
2016-11-16T00:15:45.784Z,5.77
2016-11-16T00:16:55.760Z,5.82
2016-11-16T00:18:05.723Z,5.73
2016-11-16T00:19:15.993Z,5.78
2016-11-16T00:20:26.271Z,5.84
2016-11-16T00:21:36.535Z,5.84
2016-11-16T00:22:46.829Z,5.85
2016-11-16T00:23:57.101Z,5.78
2016-11-16T00:25:07.422Z,5.84
2016-11-16T00:26:17.401Z,5.84
2016-11-16T00:27:27.374Z,5.73
2016-11-16T00:28:37.659Z,5.73
2016-11-16T00:29:47.310Z,5.8
2016-11-16T00:30:57.592Z,5.77
2016-11-16T00:32:07.858Z,5.7
2016-11-16T00:33:17.836Z,5.8
2016-11-16T00:34:28.120Z,5.72
2016-11-16T00:35:38.078Z,5.67
2016-11-16T00:36:48.354Z,5.63
2016-11-16T00:37:58.327Z,5.66
2016-11-16T00:39:07.995Z,5.73
2016-11-16T00:40:17.970Z,5.73
2016-11-16T00:41:27.641Z,5.73
2016-11-16T00:42:37.293Z,5.7
2016-11-16T00:43:47.263Z,5.63
2016-11-16T00:44:57.232Z,5.64
2016-11-16T00:46:07.193Z,5.73
2016-11-16T00:47:16.904Z,5.67
2016-11-16T00:48:26.866Z,5.64
2016-11-16T00:49:37.184Z,5.63
2016-11-16T00:50:47.466Z,5.69
2016-11-16T00:51:57.432Z,5.69
2016-11-16T00:53:07.408Z,5.75
2016-11-16T00:54:17.077Z,5.8
2016-11-16T00:55:27.366Z,5.8
2016-11-16T00:56:37.638Z,5.82
2016-11-16T00:57:47.316Z,5.81
2016-11-16T00:58:57.631Z,5.77
2016-11-16T01:00:07.607Z,5.81
2016-11-16T01:01:17.561Z,5.82
2016-11-16T01:02:26.910Z,5.85
2016-11-16T01:03:36.874Z,5.81
2016-11-16T01:04:46.520Z,5.87
2016-11-16T01:05:56.813Z,5.78
2016-11-16T01:07:06.775Z,5.8
2016-11-16T01:08:17.055Z,5.81
2016-11-16T01:09:27.329Z,5.88
2016-11-16T01:10:37.295Z,5.72
2016-11-16T01:11:47.561Z,5.75
2016-11-16T01:12:57.840Z,5.7
2016-11-16T01:14:07.796Z,5.78
2016-11-16T01:15:17.778Z,5.75
2016-11-16T01:16:28.069Z,5.67
2016-11-16T01:17:38.026Z,5.78
2016-11-16T01:18:48.301Z,5.69
2016-11-16T01:19:58.263Z,5.67
2016-11-16T01:21:07.920Z,5.66
2016-11-16T01:22:17.581Z,5.63
2016-11-16T01:23:27.849Z,5.67
2016-11-16T01:24:37.806Z,5.57
2016-11-16T01:25:47.807Z,5.7
2016-11-16T01:26:58.065Z,5.69
2016-11-16T01:28:08.360Z,5.54
2016-11-16T01:29:18.662Z,5.54
2016-11-16T01:30:28.636Z,5.72
2016-11-16T01:31:38.908Z,5.72
2016-11-16T01:32:48.907Z,5.7
2016-11-16T01:33:58.884Z,5.64
2016-11-16T01:35:09.150Z,5.69
2016-11-16T01:36:19.422Z,5.62
2016-11-16T01:37:29.693Z,5.66
2016-11-16T01:38:39.975Z,5.59
2016-11-16T01:39:49.933Z,5.62
2016-11-16T01:41:00.239Z,5.7
2016-11-16T01:42:10.200Z,5.6
2016-11-16T01:43:20.471Z,5.59
2016-11-16T01:44:30.753Z,5.66
2016-11-16T01:45:41.020Z,5.69
2016-11-16T01:46:51.003Z,5.7
2016-11-16T01:48:01.277Z,5.8
2016-11-16T01:49:11.585Z,5.7
2016-11-16T01:50:21.542Z,5.7
2016-11-16T01:51:31.811Z,5.77
2016-11-16T01:52:41.776Z,5.69
2016-11-16T01:53:51.752Z,5.66
2016-11-16T01:55:01.724Z,5.7
2016-11-16T01:56:11.696Z,5.7
2016-11-16T01:57:21.672Z,5.67
2016-11-16T01:58:31.946Z,5.75
2016-11-16T01:59:41.613Z,5.7
2016-11-16T02:00:51.574Z,5.69
2016-11-16T02:02:01.574Z,5.73
2016-11-16T02:03:11.541Z,5.66
2016-11-16T02:04:21.513Z,5.63
2016-11-16T02:05:31.476Z,5.69
2016-11-16T02:06:41.451Z,5.69
2016-11-16T02:07:51.724Z,5.7
2016-11-16T02:09:01.690Z,5.67
2016-11-16T02:10:11.356Z,5.75
2016-11-16T02:11:21.009Z,5.66
2016-11-16T02:12:31.268Z,5.72
2016-11-16T02:13:40.927Z,5.64
2016-11-16T02:14:51.219Z,5.7
2016-11-16T02:16:01.195Z,5.69
2016-11-16T02:17:11.167Z,5.67
2016-11-16T02:18:21.139Z,5.7
2016-11-16T02:19:31.410Z,5.73
2016-11-16T02:20:40.762Z,5.62
2016-11-16T02:21:50.716Z,5.62
2016-11-16T02:23:00.990Z,5.52
2016-11-16T02:24:10.648Z,5.55
2016-11-16T02:25:20.617Z,5.59
2016-11-16T02:26:30.612Z,5.62
2016-11-16T02:27:40.884Z,5.55
2016-11-16T02:28:51.160Z,5.6
2016-11-16T02:30:01.431Z,5.52
2016-11-16T02:31:11.703Z,5.51
2016-11-16T02:32:21.976Z,5.52
2016-11-16T02:33:32.285Z,5.45
2016-11-16T02:34:42.258Z,5.55
2016-11-16T02:35:52.549Z,5.48
2016-11-16T02:37:02.819Z,5.51
2016-11-16T02:38:13.087Z,5.51
2016-11-16T02:39:23.364Z,5.6
2016-11-16T02:40:33.335Z,5.57
2016-11-16T02:41:43.610Z,5.59
2016-11-16T02:42:53.568Z,5.63
2016-11-16T02:44:02.919Z,5.52
2016-11-16T02:45:12.585Z,5.44
2016-11-16T02:46:22.552Z,5.48
2016-11-16T02:47:32.833Z,5.48
2016-11-16T02:48:42.792Z,5.54
2016-11-16T02:49:52.762Z,5.39
2016-11-16T02:51:03.043Z,5.46
2016-11-16T02:52:13.015Z,5.41
2016-11-16T02:53:23.301Z,5.49
2016-11-16T02:54:32.965Z,5.41
2016-11-16T02:55:42.612Z,5.42
2016-11-16T02:56:52.897Z,5.44
2016-11-16T02:58:02.870Z,5.46
2016-11-16T02:59:12.820Z,5.44
2016-11-16T03:00:23.088Z,5.42
2016-11-16T03:32:31.188Z,2.72
2016-11-16T03:33:41.480Z,2.63
2016-11-16T03:34:51.750Z,2.6
2016-11-16T03:36:02.009Z,2.72
2016-11-16T03:37:12.273Z,2.78
2016-11-16T03:38:22.590Z,2.96
2016-11-16T03:39:32.859Z,3.17
2016-11-16T03:40:43.123Z,3.26
2016-11-16T03:41:53.385Z,3.42
2016-11-16T03:43:03.659Z,3.51
2016-11-16T03:44:13.924Z,3.72
2016-11-16T03:45:24.206Z,3.89
2016-11-16T03:46:34.183Z,4
2016-11-16T03:47:44.149Z,4.17
2016-11-16T03:48:54.117Z,4.3
2016-11-16T03:50:04.389Z,4.33
2016-11-16T03:51:14.671Z,4.56
2016-11-16T03:52:24.951Z,4.72
2016-11-16T03:53:34.899Z,4.72
2016-11-16T03:54:44.876Z,4.79
2016-11-16T03:55:55.186Z,4.97
2016-11-16T03:57:04.849Z,5
2016-11-16T03:58:15.119Z,5.13
2016-11-16T03:59:25.089Z,5.12
2016-11-16T04:00:35.052Z,5.18
2016-11-16T04:01:45.025Z,5.28
2016-11-16T04:02:55.312Z,5.24
2016-11-16T04:04:05.275Z,5.31
2016-11-16T04:05:15.575Z,5.33
2016-11-16T04:06:25.236Z,5.37
2016-11-16T04:07:35.492Z,5.36
2016-11-16T04:08:45.455Z,5.42
2016-11-16T04:09:55.416Z,5.33
2016-11-16T04:11:05.690Z,5.46
2016-11-16T04:12:15.979Z,5.48
2016-11-16T04:13:26.254Z,5.42
2016-11-16T04:14:36.524Z,5.49
2016-11-16T04:15:46.493Z,5.49
2016-11-16T04:16:56.477Z,5.44
2016-11-16T04:18:06.739Z,5.39
2016-11-16T04:19:17.010Z,5.52
2016-11-16T04:20:26.969Z,5.42
2016-11-16T04:21:36.934Z,5.41
2016-11-16T04:22:47.219Z,5.52
2016-11-16T04:23:57.547Z,5.45
2016-11-16T04:25:07.824Z,5.49
2016-11-16T04:26:18.095Z,5.45
2016-11-16T04:27:28.367Z,5.46
2016-11-16T04:28:38.643Z,5.46
2016-11-16T04:29:48.926Z,5.48
2016-11-16T04:30:59.213Z,5.44
2016-11-16T04:32:09.494Z,5.49
2016-11-16T04:33:19.793Z,5.51
2016-11-16T04:34:29.755Z,5.49
2016-11-16T04:35:40.031Z,5.49
2016-11-16T04:36:49.984Z,5.52
2016-11-16T04:38:00.253Z,5.55
2016-11-16T04:39:10.226Z,5.64
2016-11-16T04:40:20.193Z,5.63
2016-11-16T04:41:30.469Z,5.64
2016-11-16T04:42:40.440Z,5.63
2016-11-16T04:43:50.708Z,5.55
2016-11-16T04:45:00.983Z,5.52
2016-11-16T04:46:10.952Z,5.62
2016-11-16T04:47:20.927Z,5.62
2016-11-16T04:48:31.206Z,5.67
2016-11-16T04:49:41.492Z,5.54
2016-11-16T04:50:51.774Z,5.57
2016-11-16T04:52:02.064Z,5.52
2016-11-16T04:53:12.036Z,5.59
2016-11-16T04:54:22.319Z,5.64
2016-11-16T04:55:32.284Z,5.67
2016-11-16T04:56:42.256Z,5.66
2016-11-16T04:57:52.559Z,5.67
2016-11-16T04:59:02.864Z,5.67
2016-11-16T05:00:13.146Z,5.67
2016-11-16T05:01:22.805Z,5.72
2016-11-16T05:02:32.787Z,5.64
2016-11-16T05:03:43.083Z,5.7
2016-11-16T05:04:53.086Z,5.66
2016-11-16T05:06:03.360Z,5.66
2016-11-16T05:07:13.638Z,5.63
2016-11-16T05:08:23.600Z,5.6
2016-11-16T05:09:33.896Z,5.64
2016-11-16T05:10:43.856Z,5.64
2016-11-16T05:11:54.129Z,5.63
2016-11-16T05:13:04.405Z,5.62
2016-11-16T05:14:14.372Z,5.7
2016-11-16T05:15:24.665Z,5.66
2016-11-16T05:16:34.940Z,5.63
2016-11-16T05:17:44.928Z,5.59
2016-11-16T05:18:54.904Z,5.59
2016-11-16T05:20:04.565Z,5.67
2016-11-16T05:21:14.232Z,5.63
2016-11-16T05:22:24.505Z,5.67
2016-11-16T05:23:34.800Z,5.64
2016-11-16T05:24:44.764Z,5.69
2016-11-16T05:25:55.042Z,5.75
2016-11-16T05:27:05.317Z,5.78
2016-11-16T05:28:14.968Z,5.77
2016-11-16T05:29:24.930Z,5.81
2016-11-16T05:30:35.227Z,5.88
2016-11-16T05:31:45.218Z,5.88
2016-11-16T05:32:55.487Z,5.81
2016-11-16T05:34:05.450Z,5.88
2016-11-16T05:35:15.728Z,5.91
2016-11-16T05:36:26.035Z,5.87
2016-11-16T05:37:36.303Z,5.91
2016-11-16T05:38:46.280Z,5.88
2016-11-16T05:39:56.570Z,5.89
2016-11-16T05:41:06.857Z,5.96
2016-11-16T05:42:16.504Z,5.87
2016-11-16T05:43:26.467Z,5.84
2016-11-16T05:44:36.748Z,5.81
2016-11-16T05:45:47.030Z,5.77
2016-11-16T05:46:57.296Z,5.8
2016-11-16T05:48:07.259Z,5.89
2016-11-16T05:49:17.544Z,5.91
2016-11-16T05:50:27.828Z,5.84
2016-11-16T05:51:38.105Z,5.82
2016-11-16T05:52:48.405Z,5.7
2016-11-16T05:53:58.682Z,5.72
2016-11-16T05:55:08.959Z,5.75
2016-11-16T05:56:19.249Z,5.84
2016-11-16T05:57:29.219Z,5.78
2016-11-16T05:58:39.497Z,5.85
2016-11-16T05:59:49.507Z,5.77
2016-11-16T06:00:59.477Z,5.78
2016-11-16T06:02:09.761Z,5.78
2016-11-16T06:03:20.038Z,5.81
2016-11-16T06:04:30.351Z,5.81
2016-11-16T06:05:40.648Z,5.75
2016-11-16T06:06:50.929Z,5.7
2016-11-16T06:08:01.203Z,5.73
2016-11-16T06:09:11.487Z,5.8
2016-11-16T06:10:21.753Z,5.8
2016-11-16T06:11:32.033Z,5.77
2016-11-16T06:12:41.684Z,5.78
2016-11-16T06:13:51.959Z,5.77
2016-11-16T06:15:02.250Z,5.77
2016-11-16T06:16:12.597Z,5.81
2016-11-16T06:17:22.564Z,5.82
2016-11-16T06:18:32.838Z,5.78
2016-11-16T06:19:42.826Z,5.81
2016-11-16T06:20:53.102Z,5.72
2016-11-16T06:22:03.372Z,5.8
2016-11-16T06:23:13.648Z,5.75
2016-11-16T06:24:23.624Z,5.8
2016-11-16T06:25:33.911Z,5.78
2016-11-16T06:26:44.203Z,5.69
2016-11-16T06:27:54.158Z,5.77
2016-11-16T06:29:04.435Z,5.8
2016-11-16T06:30:14.713Z,5.75
2016-11-16T06:31:25.004Z,5.75
2016-11-16T06:32:35.006Z,5.7
2016-11-16T06:33:45.047Z,5.78
2016-11-16T06:34:54.711Z,5.78
2016-11-16T06:36:04.981Z,5.8
2016-11-16T06:37:14.655Z,5.87
2016-11-16T06:38:24.626Z,5.84
2016-11-16T06:39:34.316Z,5.75
2016-11-16T06:40:44.593Z,5.87
2016-11-16T06:41:54.554Z,5.75
2016-11-16T06:43:04.835Z,5.84
2016-11-16T06:44:15.108Z,6
2016-11-16T06:45:25.081Z,5.89
2016-11-16T06:46:34.737Z,5.91
2016-11-16T06:47:44.711Z,5.92
2016-11-16T06:48:54.994Z,6
2016-11-16T06:50:05.278Z,5.99
2016-11-16T06:51:15.560Z,6.02
2016-11-16T06:52:25.868Z,6.05
2016-11-16T06:53:35.829Z,6.13
2016-11-16T06:54:45.485Z,6.03
2016-11-16T06:55:55.458Z,6.05
2016-11-16T06:57:05.742Z,6.1
2016-11-16T06:58:16.037Z,6.09
2016-11-16T06:59:26.002Z,6.18
2016-11-16T07:00:35.973Z,6.17
2016-11-16T07:01:46.255Z,6.15
2016-11-16T07:02:56.530Z,6.18
2016-11-16T07:04:06.869Z,6.07
2016-11-16T07:05:17.166Z,6.21
2016-11-16T07:06:27.131Z,6.17
2016-11-16T07:07:36.795Z,6.13
2016-11-16T07:08:47.070Z,6.1
2016-11-16T07:09:57.037Z,6.07
2016-11-16T07:11:06.744Z,6.13
2016-11-16T07:12:17.021Z,6.09
2016-11-16T07:13:27.311Z,6.18
2016-11-16T07:14:37.587Z,6.09
2016-11-16T07:15:47.251Z,6.13
2016-11-16T07:16:57.521Z,6.18
2016-11-16T07:18:07.190Z,6.28
2016-11-16T07:19:17.154Z,6.26
2016-11-16T07:20:27.128Z,6.37
2016-11-16T07:21:37.418Z,6.36
2016-11-16T07:22:47.705Z,6.39
2016-11-16T07:23:58.003Z,6.43
2016-11-16T07:25:07.979Z,6.46
2016-11-16T07:26:18.255Z,6.49
2016-11-16T07:27:28.543Z,6.54
2016-11-16T07:28:38.515Z,6.51
2016-11-16T07:29:48.831Z,6.49
2016-11-16T07:30:58.803Z,6.54
2016-11-16T07:32:08.811Z,6.49
2016-11-16T07:33:18.785Z,6.67
2016-11-16T07:34:29.067Z,6.68
2016-11-16T07:35:39.054Z,6.76
2016-11-16T07:36:49.335Z,6.76
2016-11-16T07:37:59.612Z,6.73
2016-11-16T07:39:09.914Z,6.76
2016-11-16T07:40:20.192Z,6.82
2016-11-16T07:41:30.467Z,6.78
2016-11-16T07:42:40.754Z,6.88
2016-11-16T07:43:51.037Z,6.91
2016-11-16T07:45:01.362Z,6.78
2016-11-16T07:46:11.328Z,6.94
2016-11-16T07:47:21.606Z,6.95
2016-11-16T07:48:31.569Z,6.93
2016-11-16T07:49:41.543Z,6.9
2016-11-16T07:50:51.838Z,6.9
2016-11-16T07:52:02.103Z,6.85
2016-11-16T07:53:12.069Z,6.97
2016-11-16T07:54:21.437Z,6.94
2016-11-16T07:55:31.714Z,7.03
2016-11-16T07:56:41.681Z,7.11
2016-11-16T07:57:51.662Z,7.05
2016-11-16T07:59:01.323Z,7.09
2016-11-16T08:00:11.295Z,7.03
2016-11-16T08:01:21.557Z,7
2016-11-16T08:02:31.539Z,6.91
2016-11-16T08:03:41.202Z,6.76
2016-11-16T08:04:51.182Z,6.79
2016-11-16T08:06:01.448Z,6.8
2016-11-16T08:07:11.121Z,6.8
2016-11-16T08:08:21.408Z,6.75
2016-11-16T08:09:31.335Z,6.82
2016-11-16T08:10:41.303Z,6.78
2016-11-16T08:11:50.963Z,6.75
2016-11-16T08:13:01.229Z,6.83
2016-11-16T08:14:11.501Z,6.78
2016-11-16T08:15:21.469Z,6.7
2016-11-16T08:16:31.756Z,6.79
2016-11-16T08:17:41.152Z,6.8
2016-11-16T08:18:51.430Z,6.76
2016-11-16T08:20:01.089Z,6.83
2016-11-16T08:21:11.366Z,6.78
2016-11-16T08:22:21.658Z,6.7
2016-11-16T08:23:31.658Z,6.78
2016-11-16T08:24:41.942Z,6.8
2016-11-16T08:25:52.227Z,6.79
2016-11-16T08:27:02.203Z,6.72
2016-11-16T08:28:12.197Z,6.76
2016-11-16T08:29:22.157Z,6.65
2016-11-16T08:30:31.510Z,6.68
2016-11-16T08:31:41.821Z,6.61
2016-11-16T08:32:52.112Z,6.67
2016-11-16T08:34:02.400Z,6.7
2016-11-16T08:35:12.371Z,6.72
2016-11-16T08:36:22.357Z,6.7
2016-11-16T08:37:32.339Z,6.76
2016-11-16T08:38:42.652Z,6.8
2016-11-16T08:39:52.934Z,6.98
2016-11-16T08:41:02.896Z,7.05
2016-11-16T08:42:12.898Z,7.12
2016-11-16T08:43:21.940Z,7.13
2016-11-16T08:44:32.257Z,7.12
2016-11-16T08:45:41.621Z,7.15
2016-11-16T08:46:51.284Z,7.11
2016-11-16T08:48:01.600Z,7.01
2016-11-16T08:49:11.575Z,7.03
2016-11-16T08:50:21.536Z,6.97
2016-11-16T08:51:31.811Z,7.01
2016-11-16T08:52:42.136Z,7.03
2016-11-16T08:53:52.412Z,7.15
2016-11-16T08:55:02.396Z,7.26
2016-11-16T08:56:12.671Z,7.21
2016-11-16T08:57:22.956Z,7.29
2016-11-16T08:58:32.969Z,7.29
2016-11-16T08:59:43.256Z,7.19
2016-11-16T09:00:53.250Z,7.33
2016-11-16T09:02:02.924Z,7.22
2016-11-16T09:03:12.887Z,7.22
2016-11-16T09:04:22.867Z,7.19
2016-11-16T09:05:33.155Z,7.21
2016-11-16T09:06:43.357Z,7.19
2016-11-16T09:07:53.340Z,7.15
2016-11-16T09:09:03.596Z,7.27
2016-11-16T09:10:13.872Z,7.23
2016-11-16T09:11:23.838Z,7.23
2016-11-16T09:12:33.500Z,7.34
2016-11-16T09:13:43.468Z,7.4
2016-11-16T09:14:53.483Z,7.47
2016-11-16T09:16:03.446Z,7.48
2016-11-16T09:17:13.716Z,7.48
2016-11-16T09:18:23.991Z,7.45
2016-11-16T09:19:34.260Z,7.44
2016-11-16T09:20:43.949Z,7.41
2016-11-16T09:21:53.923Z,7.52
2016-11-16T09:23:03.580Z,7.58
2016-11-16T09:24:13.248Z,7.54
2016-11-16T09:25:23.558Z,7.64
2016-11-16T09:26:33.552Z,7.58
2016-11-16T09:27:43.843Z,7.63
2016-11-16T09:28:53.214Z,7.61
2016-11-16T09:30:03.209Z,7.48
2016-11-16T09:31:13.539Z,7.52
2016-11-16T09:32:23.853Z,7.51
2016-11-16T09:33:33.814Z,7.54
2016-11-16T09:34:43.793Z,7.63
2016-11-16T09:35:53.754Z,7.63
2016-11-16T09:37:03.400Z,7.64
2016-11-16T09:38:13.395Z,7.64
2016-11-16T09:39:23.924Z,7.67
2016-11-16T09:40:33.926Z,7.59
2016-11-16T09:41:43.909Z,7.59
2016-11-16T09:42:53.580Z,7.58
2016-11-16T09:44:03.236Z,7.7
2016-11-16T09:45:13.207Z,7.88
2016-11-16T09:46:23.489Z,7.93
2016-11-16T09:47:33.457Z,8.03
2016-11-16T09:48:43.170Z,8.04
2016-11-16T09:49:53.459Z,8.11
2016-11-16T09:51:03.127Z,8.03
2016-11-16T09:52:13.098Z,8.16
2016-11-16T09:53:23.074Z,8.17
2016-11-16T09:54:33.352Z,8.26
2016-11-16T09:55:43.332Z,8.19
2016-11-16T09:56:53.300Z,8.21
2016-11-16T09:58:03.594Z,8.14
2016-11-16T09:59:13.609Z,7.91
2016-11-16T10:00:23.580Z,7.93
2016-11-16T10:01:33.560Z,7.92
2016-11-16T10:02:43.532Z,7.98
2016-11-16T10:03:53.566Z,7.92
2016-11-16T10:05:03.231Z,7.91
2016-11-16T10:06:13.527Z,8.04
2016-11-16T10:07:23.200Z,7.92
2016-11-16T10:08:33.169Z,7.95
2016-11-16T10:09:43.466Z,7.92
2016-11-16T10:10:53.754Z,7.89
2016-11-16T10:12:04.031Z,7.89
2016-11-16T10:13:13.997Z,7.93
2016-11-16T10:14:24.264Z,7.8
2016-11-16T10:15:34.381Z,7.78
2016-11-16T10:16:44.689Z,7.85
2016-11-16T10:17:54.665Z,7.77
2016-11-16T10:19:04.630Z,7.89
2016-11-16T10:20:14.609Z,7.85
2016-11-16T10:21:24.931Z,7.89
2016-11-16T10:22:34.906Z,7.86
2016-11-16T10:23:45.179Z,7.93
2016-11-16T10:24:55.465Z,7.93
2016-11-16T10:26:05.758Z,7.92
2016-11-16T10:27:15.728Z,7.99
2016-11-16T10:28:26.009Z,8.04
2016-11-16T10:29:35.984Z,7.99
2016-11-16T10:30:45.652Z,8.09
2016-11-16T10:31:55.967Z,8.03
2016-11-16T10:33:06.276Z,8.17
2016-11-16T10:34:15.944Z,8.1
2016-11-16T10:35:26.215Z,8.13
2016-11-16T10:36:36.494Z,8.04
2016-11-16T10:37:46.160Z,8.01
2016-11-16T10:38:56.447Z,8.14
2016-11-16T10:40:06.450Z,8.11
2016-11-16T10:41:16.438Z,8.22
2016-11-16T10:42:26.808Z,8.22
2016-11-16T10:43:36.789Z,8.21
2016-11-16T10:44:47.107Z,8.16
2016-11-16T10:45:57.412Z,8.14
2016-11-16T10:47:07.429Z,8.09
2016-11-16T10:48:17.700Z,8.13
2016-11-16T10:49:28.005Z,8.22
2016-11-16T10:50:38.326Z,8.14
2016-11-16T10:51:48.666Z,8.17
2016-11-16T10:52:58.660Z,8.17
2016-11-16T10:54:08.966Z,8.11
2016-11-16T10:55:19.276Z,8.11
2016-11-16T10:56:29.292Z,8.01
2016-11-16T10:57:39.288Z,8.04
2016-11-16T10:58:49.570Z,7.98
2016-11-16T10:59:59.228Z,8.01
2016-11-16T11:01:09.529Z,7.89
2016-11-16T11:02:19.814Z,7.89
2016-11-16T11:03:29.786Z,7.92
2016-11-16T11:04:39.757Z,7.95
2016-11-16T11:05:50.072Z,7.96
2016-11-16T11:07:00.107Z,7.99
2016-11-16T11:08:10.731Z,7.98
2016-11-16T11:09:20.714Z,8.01
2016-11-16T11:10:30.997Z,7.89
2016-11-16T11:11:41.283Z,7.85
2016-11-16T11:12:51.594Z,7.89
2016-11-16T11:14:01.591Z,7.83
2016-11-16T11:15:11.583Z,7.82
2016-11-16T11:16:21.545Z,7.83
2016-11-16T11:17:30.892Z,7.86
2016-11-16T11:18:40.858Z,7.75
2016-11-16T11:19:50.526Z,7.83
2016-11-16T11:21:00.225Z,7.86
2016-11-16T11:22:10.536Z,7.92
2016-11-16T11:23:20.250Z,7.88
2016-11-16T11:24:30.261Z,7.93
2016-11-16T11:25:40.233Z,7.92
2016-11-16T11:26:50.199Z,7.86
2016-11-16T11:27:59.861Z,7.89
2016-11-16T11:29:10.130Z,7.89
2016-11-16T11:30:20.130Z,7.86
2016-11-16T11:31:29.882Z,7.88
2016-11-16T11:32:39.539Z,7.99
2016-11-16T11:33:49.506Z,8.04
2016-11-16T11:34:59.786Z,8.11
2016-11-16T11:36:09.759Z,8.09
2016-11-16T11:37:20.040Z,8.13
2016-11-16T11:38:30.318Z,8.11
2016-11-16T11:39:39.974Z,8.11
2016-11-16T11:40:50.255Z,8.1
2016-11-16T11:42:00.220Z,8.11
2016-11-16T11:43:10.499Z,8.03
2016-11-16T11:44:20.479Z,8.04
2016-11-16T11:45:30.811Z,8.04
2016-11-16T11:46:41.084Z,8.06
2016-11-16T11:47:51.068Z,8.09
2016-11-16T11:49:01.363Z,7.98
2016-11-16T11:50:11.652Z,8.11
2016-11-16T11:51:21.633Z,8.04
2016-11-16T11:52:31.897Z,8.16
2016-11-16T11:53:42.164Z,8.1
2016-11-16T11:54:52.436Z,8.11
2016-11-16T11:56:02.413Z,8.14
2016-11-16T11:57:12.700Z,8.17
2016-11-16T11:58:22.656Z,8.22
2016-11-16T11:59:32.635Z,8.29
2016-11-16T12:00:42.609Z,8.31
2016-11-16T12:01:52.576Z,8.17
2016-11-16T12:03:02.238Z,8.24
2016-11-16T12:04:12.424Z,8.17
2016-11-16T12:05:22.707Z,8.24
2016-11-16T12:06:33.268Z,8.14
2016-11-16T12:07:43.248Z,8.29
2016-11-16T12:08:53.539Z,8.16
2016-11-16T12:10:03.855Z,8.06
2016-11-16T12:11:13.823Z,7.95
2016-11-16T12:12:23.494Z,7.82
2016-11-16T12:13:33.804Z,7.86
2016-11-16T12:14:43.762Z,7.83
2016-11-16T12:15:53.731Z,7.86
2016-11-16T12:17:03.078Z,7.85
2016-11-16T12:18:13.056Z,7.91
2016-11-16T12:19:23.052Z,7.85
2016-11-16T12:20:33.383Z,7.89
2016-11-16T12:21:43.391Z,7.85
2016-11-16T12:22:53.371Z,7.91
2016-11-16T12:24:03.339Z,7.93
2016-11-16T12:25:13.321Z,8.01
2016-11-16T12:26:23.292Z,8.07
2016-11-16T12:27:33.672Z,7.91
2016-11-16T12:28:43.637Z,8.01
2016-11-16T12:29:53.934Z,8.09
2016-11-16T12:31:04.209Z,7.91
2016-11-16T12:32:14.189Z,7.96
2016-11-16T12:33:24.492Z,7.83
2016-11-16T12:34:33.864Z,7.89
2016-11-16T12:35:43.526Z,7.95
2016-11-16T12:36:53.496Z,7.93
2016-11-16T12:38:03.469Z,7.95
2016-11-16T12:39:13.435Z,8.03
2016-11-16T12:40:23.108Z,7.99
2016-11-16T12:41:33.074Z,7.92
2016-11-16T12:42:42.830Z,7.98
2016-11-16T12:43:52.806Z,7.93
2016-11-16T12:45:03.098Z,7.93
2016-11-16T12:46:12.796Z,7.93
2016-11-16T12:47:23.072Z,7.92
2016-11-16T12:48:33.374Z,7.91
2016-11-16T12:49:43.346Z,7.82
2016-11-16T12:50:53.316Z,7.8
2016-11-16T12:52:03.278Z,7.75
2016-11-16T12:53:13.259Z,7.73
2016-11-16T12:54:23.537Z,7.67
2016-11-16T12:55:33.835Z,7.59
2016-11-16T12:56:43.813Z,7.56
2016-11-16T12:57:54.106Z,7.55
2016-11-16T12:59:04.383Z,7.48
2016-11-16T13:00:14.340Z,7.39
2016-11-16T13:01:24.309Z,7.39
2016-11-16T13:02:34.302Z,7.29
2016-11-16T13:03:44.284Z,7.23
2016-11-16T13:04:54.595Z,7.22
2016-11-16T13:06:04.908Z,7.23
2016-11-16T13:07:14.888Z,7.21
2016-11-16T13:08:25.194Z,7.13
2016-11-16T13:09:34.881Z,7.16
2016-11-16T13:10:44.854Z,7.09
2016-11-16T13:11:54.545Z,7.12
2016-11-16T13:13:04.557Z,7.09
2016-11-16T13:14:14.874Z,7.12
2016-11-16T13:15:25.160Z,7.03
2016-11-16T13:16:35.133Z,7.12
2016-11-16T13:17:45.141Z,7.15
2016-11-16T13:18:55.451Z,7.11
2016-11-16T13:20:05.683Z,7.12
2016-11-16T13:21:15.979Z,7.09
2016-11-16T13:22:25.954Z,7.16
2016-11-16T13:23:35.918Z,7.13
2016-11-16T13:24:45.875Z,7.04
2016-11-16T13:25:55.827Z,7.12
2016-11-16T13:27:05.783Z,7.18
2016-11-16T13:28:16.069Z,7.12
2016-11-16T13:29:26.348Z,7.16
2016-11-16T13:30:36.636Z,7.11
2016-11-16T13:31:46.616Z,7.13
2016-11-16T13:32:56.896Z,7.11
2016-11-16T13:34:06.898Z,7.16
2016-11-16T13:35:16.551Z,7.05
2016-11-16T13:36:26.862Z,7.03
2016-11-16T13:37:37.145Z,6.93
2016-11-16T13:38:47.455Z,6.97
2016-11-16T13:39:57.112Z,7.04
2016-11-16T13:41:07.389Z,6.98
2016-11-16T13:42:17.384Z,6.95
2016-11-16T13:43:27.358Z,7.03
2016-11-16T13:44:37.365Z,7
2016-11-16T13:45:46.728Z,6.97
2016-11-16T13:46:56.690Z,6.98
2016-11-16T13:48:06.974Z,7.03
2016-11-16T13:49:16.957Z,6.95
2016-11-16T13:50:26.926Z,7.01
2016-11-16T13:51:36.883Z,6.91
2016-11-16T13:52:46.855Z,7.05
2016-11-16T13:53:56.819Z,7
2016-11-16T13:55:06.165Z,6.93
2016-11-16T13:56:16.455Z,6.9
2016-11-16T13:57:26.790Z,6.82
2016-11-16T13:58:36.760Z,6.79
2016-11-16T13:59:47.034Z,6.78
2016-11-16T14:00:57.013Z,6.76
2016-11-16T14:02:07.296Z,6.73
2016-11-16T14:03:17.305Z,6.73
2016-11-16T14:04:27.271Z,6.67
2016-11-16T14:05:37.554Z,6.73
2016-11-16T14:06:47.857Z,6.78
2016-11-16T14:07:57.517Z,6.79
2016-11-16T14:09:07.787Z,6.79
2016-11-16T14:10:18.079Z,6.78
2016-11-16T14:11:28.042Z,6.85
2016-11-16T14:12:38.008Z,6.8
2016-11-16T14:13:47.981Z,6.79
2016-11-16T14:14:57.638Z,6.85
2016-11-16T14:16:07.917Z,6.85
2016-11-16T14:17:17.589Z,6.85
2016-11-16T14:18:27.572Z,6.78
2016-11-16T14:19:37.538Z,6.83
2016-11-16T14:20:47.503Z,6.86
2016-11-16T14:21:57.461Z,6.91
2016-11-16T14:23:07.429Z,6.85
2016-11-16T14:24:17.094Z,6.8
2016-11-16T14:25:27.374Z,6.82
2016-11-16T14:26:38.211Z,6.8
2016-11-16T14:27:48.174Z,6.76
2016-11-16T14:28:58.479Z,6.76
2016-11-16T14:30:08.450Z,6.67
2016-11-16T14:31:18.419Z,6.73
2016-11-16T14:32:28.720Z,6.76
2016-11-16T14:33:38.681Z,6.78
2016-11-16T14:34:48.660Z,6.7
2016-11-16T14:35:58.651Z,6.62
2016-11-16T14:37:08.928Z,6.73
2016-11-16T14:38:18.901Z,6.85
2016-11-16T14:39:28.856Z,6.85
2016-11-16T14:40:38.823Z,6.75
2016-11-16T14:41:49.105Z,6.79
2016-11-16T14:42:59.095Z,6.67
2016-11-16T14:44:09.367Z,6.78
2016-11-16T14:45:19.329Z,6.78
2016-11-16T14:46:28.700Z,6.72
2016-11-16T14:47:38.988Z,6.73
2016-11-16T14:48:48.956Z,6.65
2016-11-16T14:49:59.242Z,6.64
2016-11-16T14:51:09.513Z,6.67
2016-11-16T14:52:19.509Z,6.64
2016-11-16T14:53:29.786Z,6.72
2016-11-16T14:54:40.062Z,6.67
2016-11-16T14:55:50.431Z,6.68
2016-11-16T14:57:01.098Z,6.75
2016-11-16T14:58:10.778Z,6.78
2016-11-16T14:59:21.118Z,6.75
2016-11-16T15:00:31.484Z,6.73
2016-11-16T15:01:41.813Z,6.68
2016-11-16T15:02:52.115Z,6.72
2016-11-16T15:04:02.420Z,6.78
2016-11-16T15:05:12.532Z,6.73
2016-11-16T15:06:22.728Z,6.7
2016-11-16T15:07:33.023Z,6.76
2016-11-16T15:08:43.101Z,6.76
2016-11-16T15:09:53.682Z,6.68
2016-11-16T15:11:04.732Z,6.72
2016-11-16T15:12:14.756Z,6.68
2016-11-16T15:13:24.786Z,6.57
2016-11-16T15:14:35.102Z,6.65
2016-11-16T15:15:45.401Z,6.68
2016-11-16T15:16:55.384Z,6.76
2016-11-16T15:18:05.696Z,6.68
2016-11-16T15:19:15.730Z,6.62
2016-11-16T15:20:25.785Z,6.72
2016-11-16T15:21:35.541Z,6.6
2016-11-16T15:22:45.238Z,6.64
2016-11-16T15:23:55.355Z,6.7
2016-11-16T15:25:05.783Z,6.65
2016-11-16T15:26:15.868Z,6.58
2016-11-16T15:27:25.902Z,6.64
2016-11-16T15:28:36.219Z,6.57
2016-11-16T15:29:46.210Z,6.68
2016-11-16T15:30:55.942Z,6.65
2016-11-16T15:32:05.386Z,6.67
2016-11-16T15:33:15.671Z,6.54
2016-11-16T15:34:26.046Z,6.49
2016-11-16T15:35:36.515Z,6.54
2016-11-16T15:36:46.565Z,6.6
2016-11-16T15:37:56.903Z,6.52
2016-11-16T15:39:06.962Z,6.57
2016-11-16T15:40:17.017Z,6.57
2016-11-16T15:41:27.351Z,6.55
2016-11-16T15:42:37.009Z,6.58
2016-11-16T15:43:46.686Z,6.51
2016-11-16T15:44:56.687Z,6.57
2016-11-16T15:46:06.995Z,6.52
2016-11-16T15:47:17.146Z,6.54
2016-11-16T15:48:27.226Z,6.57
2016-11-16T15:49:37.394Z,6.54
2016-11-16T15:50:47.101Z,6.54
2016-11-16T15:51:57.383Z,6.52
2016-11-16T15:53:07.517Z,6.49
2016-11-16T15:54:17.539Z,6.55
2016-11-16T15:55:27.596Z,6.6
2016-11-16T15:56:38.079Z,6.54
2016-11-16T15:57:48.127Z,6.61
2016-11-16T15:58:58.458Z,6.52
2016-11-16T16:00:08.798Z,6.51
2016-11-16T16:01:18.494Z,6.57
2016-11-16T16:02:28.823Z,6.58
2016-11-16T16:03:38.862Z,6.54
2016-11-16T16:04:49.200Z,6.61
2016-11-16T16:05:59.515Z,6.62
2016-11-16T16:07:09.934Z,6.62